Latest Weather Observations for Evans Head

IDN60801

Issued at 10:42 pm EST Monday 22 April 2019 (issued every 10 minutes, with the page automatically refreshed every 10 minutes)

About weather observations | Map of weather stations | Latest weather observations for NSW | Other Formats
Station Details ID: 058212 Name: EVANS HEAD RAAF BOMBING RANGE AWS Lat: -29.18 Lon: 153.40 Height: 62.5 m
Data from the previous 72 hours. | See also: Recent months at Evans Head
Date/Time
EST
Temp
°C
App
Temp
°C
Dew
Point
°C
Rel
Hum
%
Delta-T
°C
Wind Press
QNH
hPa
Press
MSL
hPa
Rain since
9am
mm
Dir  Spd
km/h
Gust
km/h
Spd
kts
Gust
kts
22/10:30pm 21.8 20.2 16.1 70 3.4 E 19 26 10 14 1024.2 1024.0 0.8
22/10:00pm 22.0 20.3 16.3 70 3.4 E 20 28 11 15 1023.8 1023.6 0.8
22/09:30pm 21.9 20.4 16.8 73 3.1 E 20 28 11 15 1023.7 1023.5 0.8
22/09:00pm 22.1 20.3 17.0 73 3.1 E 22 30 12 16 1023.6 1023.4 0.8
22/08:30pm 21.9 20.6 16.8 73 3.1 E 19 26 10 14 1023.6 1023.4 0.8
22/08:00pm 22.1 20.2 16.8 72 3.2 E 22 30 12 16 1023.4 1023.2 0.8
22/07:30pm 22.2 19.9 16.7 71 3.4 E 24 32 13 17 1023.1 1022.9 0.8
22/07:00pm 21.4 21.0 17.2 77 2.6 ENE 15 26 8 14 1022.9 1022.7 0.8
22/06:30pm 20.8 18.1 17.6 82 2.0 E 28 37 15 20 1022.6 1022.4 0.8
22/06:00pm 21.3 18.9 16.5 74 2.9 E 24 30 13 16 1022.2 1022.0 0.8
22/05:30pm 21.4 20.5 18.2 82 2.0 E 20 30 11 16 1021.9 1021.7 0.8
22/05:00pm 21.2 20.6 17.6 80 2.2 E 17 22 9 12 1021.7 1021.5 0.8
22/04:30pm 21.2 21.2 18.2 83 1.9 E 15 20 8 11 1021.7 1021.5 0.8
22/04:00pm 22.6 21.8 18.4 77 2.6 ESE 20 24 11 13 1021.5 1021.3 0.0
22/03:30pm 22.6 21.1 17.7 74 3.0 ESE 22 32 12 17 1021.3 1021.1 0.0
22/03:00pm 23.6 23.4 17.6 69 3.7 E 15 20 8 11 1021.2 1021.0 0.0
22/02:30pm 23.8 22.8 16.6 64 4.4 E 17 22 9 12 1021.4 1021.2 0.0
22/02:00pm 24.4 23.9 17.9 67 4.1 E 17 24 9 13 1021.5 1021.3 0.0
22/01:30pm 23.9 24.1 18.5 72 3.4 ESE 15 19 8 10 1021.4 1021.2 0.0
22/01:00pm 22.9 22.3 17.6 72 3.3 SE 17 26 9 14 1021.5 1021.3 0.0
22/12:30pm 23.8 23.7 17.8 69 3.8 E 15 20 8 11 1021.9 1021.7 0.0
22/12:00pm 24.0 25.4 17.7 68 3.9 SE 7 13 4 7 1022.1 1021.9 0.0
22/11:30am 23.4 24.6 17.4 69 3.7 SE 7 13 4 7 1022.5 1022.3 0.0
22/11:00am 23.8 25.3 18.0 70 3.6 SE 7 11 4 6 1022.5 1022.3 0.0
22/10:30am 24.6 25.2 17.6 65 4.4 SE 11 15 6 8 1022.7 1022.5 0.0
22/10:00am 24.5 25.8 17.5 65 4.4 E 7 13 4 7 1022.9 1022.7 0.0
22/09:30am 23.3 26.5 18.8 76 2.9 CALM 0 6 0 3 1023.1 1022.9 0.0
22/09:00am 22.2 23.8 17.8 76 2.7 S 6 9 3 5 1023.0 1022.8 0.6
22/08:30am 20.5 21.7 17.3 82 2.0 SW 7 9 4 5 1023.0 1022.8 0.6
22/08:00am 19.0 19.1 16.4 85 1.6 SW 11 15 6 8 1022.8 1022.6 0.6
22/07:30am 17.8 17.9 15.6 87 1.3 WSW 9 11 5 6 1022.5 1022.3 0.6
22/07:00am 17.4 17.1 15.4 88 1.2 SW 11 13 6 7 1022.2 1022.0 0.6
22/06:30am 17.3 16.6 15.3 88 1.2 SW 13 15 7 8 1021.9 1021.7 0.6
22/06:00am 17.3 16.9 15.1 87 1.3 SW 11 15 6 8 1021.5 1021.3 0.6
22/05:30am 17.4 16.6 15.0 86 1.4 WSW 13 17 7 9 1021.5 1021.3 0.6
22/05:00am 17.5 17.4 15.0 85 1.5 WSW 9 13 5 7 1021.3 1021.1 0.6
22/04:30am 18.5 19.2 14.6 78 2.3 WNW 4 7 2 4 1021.2 1021.0 0.6
22/04:00am 20.3 20.6 14.9 71 3.2 NE 7 15 4 8 1021.2 1021.0 0.6
22/03:30am 20.7 20.2 14.8 69 3.5 ENE 11 17 6 9 1021.1 1020.9 0.6
22/03:00am 20.8 19.5 14.9 69 3.5 E 15 22 8 12 1021.1 1020.9 0.6
22/02:30am 20.7 20.0 15.3 71 3.2 E 13 19 7 10 1021.1 1020.9 0.6
22/02:00am 20.9 20.4 15.9 73 3.0 ESE 13 19 7 10 1021.3 1021.1 0.6
22/01:30am 20.6 20.4 15.8 74 2.9 ESE 11 15 6 8 1021.9 1021.7 0.6
22/01:00am 20.5 20.1 15.1 71 3.2 ESE 11 17 6 9 1022.0 1021.8 0.6
22/12:30am 20.7 20.2 15.0 70 3.4 ESE 11 17 6 9 1022.3 1022.1 0.6
22/12:00am 20.9 19.7 15.0 69 3.5 ESE 15 20 8 11 1022.6 1022.4 0.6
 
Date/Time
EST
Temp
°C
App
Temp
°C
Dew
Point
°C
Rel
Hum
%
Delta-T
°C
Wind Press
QNH
hPa
Press
MSL
hPa
Rain since
9am
mm
Dir  Spd
km/h
Gust
km/h
Spd
kts
Gust
kts
21/11:30pm 20.9 20.0 14.8 68 3.6 ESE 13 19 7 10 1022.9 1022.7 0.6
21/11:00pm 21.1 20.1 14.7 67 3.8 E 13 19 7 10 1022.9 1022.7 0.6
21/10:30pm 21.2 20.5 15.5 70 3.4 E 13 20 7 11 1023.1 1022.9 0.6
21/10:00pm 21.5 19.9 15.1 67 3.8 E 17 22 9 12 1023.2 1023.0 0.6
21/09:30pm 21.5 19.5 14.9 66 3.9 ESE 19 24 10 13 1023.3 1023.1 0.6
21/09:00pm 21.6 19.5 14.7 65 4.1 ESE 19 28 10 15 1023.2 1023.0 0.6
21/08:30pm 21.6 19.6 15.4 68 3.7 E 20 24 11 13 1023.2 1023.0 0.6
21/08:00pm 21.8 19.3 15.2 66 3.9 ESE 22 28 12 15 1023.2 1023.0 0.6
21/07:30pm 21.8 20.0 15.6 68 3.7 E 19 28 10 15 1023.0 1022.8 0.6
21/07:00pm 21.8 19.8 15.4 67 3.8 ESE 20 26 11 14 1022.7 1022.5 0.6
21/06:30pm 22.0 19.4 14.9 64 4.2 E 22 30 12 16 1022.5 1022.3 0.6
21/06:00pm 21.9 19.7 16.0 69 3.5 E 22 30 12 16 1022.3 1022.1 0.6
21/05:30pm 21.9 19.5 15.5 67 3.8 E 22 32 12 17 1022.2 1022.0 0.6
21/05:00pm 22.0 19.4 15.8 68 3.7 E 24 32 13 17 1022.1 1021.9 0.6
21/04:30pm 22.3 20.2 16.3 69 3.6 E 22 33 12 18 1021.7 1021.5 0.6
21/04:00pm 22.6 20.6 16.4 68 3.8 E 22 32 12 17 1021.6 1021.4 0.6
21/03:30pm 23.1 20.5 16.9 68 3.8 E 26 35 14 19 1021.5 1021.3 0.6
21/03:00pm 23.5 21.4 16.1 63 4.5 ESE 22 32 12 17 1021.6 1021.4 0.6
21/02:30pm 23.7 21.3 15.5 60 4.9 E 22 33 12 18 1021.6 1021.4 0.6
21/02:00pm 24.2 21.7 17.0 64 4.4 E 26 33 14 18 1021.6 1021.4 0.6
21/01:30pm 24.0 22.0 16.5 63 4.6 E 22 28 12 15 1021.8 1021.6 0.6
21/01:00pm 24.8 22.8 17.5 64 4.5 E 24 32 13 17 1021.9 1021.7 0.6
21/12:30pm 24.1 21.8 16.6 63 4.6 E 24 32 13 17 1022.3 1022.1 0.6
21/12:00pm 23.9 21.2 16.7 64 4.4 E 26 33 14 18 1022.7 1022.5 0.6
21/11:30am 24.2 23.0 18.4 70 3.7 E 22 30 12 16 1023.1 1022.9 0.6
21/11:00am 23.6 22.4 17.6 69 3.7 E 20 28 11 15 1023.5 1023.3 0.6
21/10:30am 24.0 23.1 18.2 70 3.7 E 20 28 11 15 1023.7 1023.5 0.6
21/10:00am 23.7 22.4 19.0 75 3.0 E 24 39 13 21 1023.7 1023.5 0.6
21/09:30am 22.4 21.4 18.8 80 2.3 E 22 33 12 18 1023.7 1023.5 0.6
21/09:00am 23.7 24.0 17.9 70 3.6 ESE 13 17 7 9 1023.8 1023.6 0.4
21/08:30am 22.7 21.5 17.6 73 3.2 E 20 28 11 15 1023.8 1023.6 0.4
21/08:00am 22.1 21.3 17.9 77 2.6 ESE 19 32 10 17 1023.6 1023.4 0.4
21/07:30am 21.9 21.5 17.1 74 2.9 E 15 19 8 10 1023.4 1023.2 0.4
21/07:00am 22.3 22.3 17.2 73 3.1 ESE 13 17 7 9 1023.3 1023.1 0.4
21/06:30am 21.6 20.6 16.6 73 3.0 E 17 24 9 13 1022.9 1022.7 0.4
21/06:00am 21.5 20.5 16.7 74 2.9 ESE 17 24 9 13 1022.6 1022.4 0.4
21/05:30am 21.7 20.2 16.2 71 3.3 E 19 26 10 14 1022.3 1022.1 0.4
21/05:00am 21.5 20.0 16.2 72 3.2 E 19 28 10 15 1022.1 1021.9 0.4
21/04:30am 21.3 20.1 16.0 72 3.2 E 17 24 9 13 1022.0 1021.8 0.4
21/04:00am 21.6 20.7 15.9 70 3.4 ENE 15 24 8 13 1022.0 1021.8 0.4
21/03:30am 21.8 20.2 15.9 69 3.6 E 19 28 10 15 1022.1 1021.9 0.4
21/03:00am 21.9 20.8 16.4 71 3.3 ENE 17 28 9 15 1022.0 1021.8 0.4
21/02:30am 21.9 20.6 16.8 73 3.1 E 19 30 10 16 1022.1 1021.9 0.4
21/02:00am 22.2 21.0 17.1 73 3.1 E 19 28 10 15 1022.5 1022.3 0.4
21/01:30am 22.1 20.9 17.0 73 3.1 E 19 28 10 15 1022.7 1022.5 0.4
21/01:00am 22.0 21.2 17.2 74 2.9 E 17 26 9 14 1022.7 1022.5 0.4
21/12:30am 22.4 20.5 16.7 70 3.5 E 22 30 12 16 1022.9 1022.7 0.4
21/12:00am 22.1 21.0 17.7 76 2.7 E 20 30 11 16 1023.0 1022.8 0.4
 
Date/Time
EST
Temp
°C
App
Temp
°C
Dew
Point
°C
Rel
Hum
%
Delta-T
°C
Wind Press
QNH
hPa
Press
MSL
hPa
Rain since
9am
mm
Dir  Spd
km/h
Gust
km/h
Spd
kts
Gust
kts
20/11:30pm 22.2 20.5 17.1 73 3.1 E 22 32 12 17 1023.1 1022.9 0.4
20/11:00pm 22.5 21.2 17.2 72 3.3 E 20 30 11 16 1023.3 1023.1 0.4
20/10:30pm 22.4 20.4 17.3 73 3.1 E 24 32 13 17 1023.6 1023.4 0.4
20/10:00pm 22.2 20.0 16.9 72 3.2 E 24 32 13 17 1023.8 1023.6 0.4
20/09:30pm 22.4 20.9 17.8 75 2.9 E 22 32 12 17 1023.9 1023.7 0.4
20/09:00pm 22.5 20.0 17.2 72 3.3 E 26 35 14 19 1023.9 1023.7 0.4
20/08:30pm 22.4 20.4 17.5 74 3.0 E 24 32 13 17 1023.8 1023.6 0.4
20/08:00pm 22.4 20.4 17.5 74 3.0 E 24 35 13 19 1023.6 1023.4 0.4
20/07:30pm 22.5 20.6 17.6 74 3.0 ESE 24 33 13 18 1023.6 1023.4 0.4
20/07:00pm 22.6 20.8 17.9 75 2.9 ESE 24 32 13 17 1023.3 1023.1 0.4
20/06:30pm 22.3 20.5 17.9 76 2.7 ESE 24 35 13 19 1023.0 1022.8 0.4
20/06:00pm 22.0 20.4 18.4 80 2.3 ESE 24 33 13 18 1022.7 1022.5 0.4
20/05:30pm 21.8 21.8 18.2 80 2.3 NE 15 24 8 13 1022.5 1022.3 0.4
20/05:00pm 22.9 22.2 18.7 77 2.6 ESE 20 30 11 16 1022.2 1022.0 0.4
20/04:30pm 23.0 22.5 19.0 78 2.5 ESE 20 30 11 16 1022.2 1022.0 0.4
20/04:00pm 23.2 22.5 18.7 76 2.8 E 20 30 11 16 1022.1 1021.9 0.4
20/03:30pm 23.4 22.2 18.3 73 3.2 E 22 30 12 16 1022.2 1022.0 0.4
20/03:00pm 22.8 21.4 18.8 78 2.5 E 24 32 13 17 1022.3 1022.1 0.4
20/02:30pm 21.6 21.2 19.0 85 1.6 ENE 19 28 10 15 1022.3 1022.1 0.4
20/02:00pm 24.6 23.6 19.7 74 3.2 ESE 24 35 13 19 1022.3 1022.1 0.0
20/01:30pm 24.8 24.5 19.6 73 3.4 ESE 20 28 11 15 1022.4 1022.2 0.0
20/01:00pm 23.9 23.7 19.4 76 2.9 E 19 28 10 15 1022.7 1022.5 0.0
20/12:30pm 24.3 22.9 18.7 71 3.6 E 24 39 13 21 1023.0 1022.8 0.0
20/12:00pm 25.6 25.1 19.9 70 3.7 E 22 33 12 18 1023.5 1023.3 0.0
20/11:30am 24.6 23.3 19.0 71 3.6 E 24 30 13 16 1023.9 1023.7 0.0
20/11:00am 25.4 24.9 20.0 72 3.5 ESE 22 30 12 16 1024.2 1024.0 0.0
20/10:30am 25.3 24.7 19.7 71 3.6 ESE 22 30 12 16 1024.4 1024.2 0.0
20/10:00am 24.5 24.0 19.1 72 3.4 ESE 20 32 11 17 1024.6 1024.4 0.0
20/09:30am 24.6 23.6 18.8 70 3.7 ESE 22 32 12 17 1024.6 1024.4 0.0
20/09:00am 24.5 23.4 18.7 70 3.7 ESE 22 30 12 16 1024.7 1024.5 15.2
20/08:30am 24.1 23.0 18.7 72 3.4 ESE 22 32 12 17 1024.5 1024.3 15.2
20/08:00am 23.2 22.0 18.3 74 3.1 ESE 22 30 12 16 1024.4 1024.2 15.2
20/07:30am 22.5 21.0 17.8 75 2.9 ESE 22 32 12 17 1024.0 1023.8 15.2
20/07:00am 22.6 21.7 18.2 76 2.7 ESE 20 30 11 16 1023.8 1023.6 15.2
20/06:30am 22.0 20.3 17.2 74 3.0 ESE 22 32 12 17 1023.5 1023.3 15.2
20/06:00am 22.2 20.5 18.2 78 2.5 ESE 24 32 13 17 1023.2 1023.0 15.2
20/05:30am 21.4 18.6 17.4 78 2.5 E 28 41 15 22 1023.0 1022.8 15.2
20/05:00am 20.8 20.0 18.4 86 1.5 SE 20 30 11 16 1022.9 1022.7 15.2
20/04:30am 21.9 20.8 18.7 82 2.0 ESE 22 32 12 17 1022.7 1022.5 15.2
20/04:00am 21.7 20.2 18.5 82 2.0 ESE 24 33 13 18 1022.7 1022.5 15.2
20/03:30am 21.3 20.2 18.7 85 1.6 ESE 22 33 12 18 1022.7 1022.5 15.2
20/03:00am 21.1 21.8 18.9 87 1.4 E 13 20 7 11 1022.7 1022.5 15.2
20/02:30am 20.1 18.1 17.5 85 1.6 E 24 33 13 18 1022.8 1022.6 15.0
20/02:00am 22.0 21.2 18.4 80 2.3 E 20 30 11 16 1023.1 1022.9 15.0
20/01:30am 22.1 20.5 18.3 79 2.4 E 24 33 13 18 1023.3 1023.1 15.0
20/01:00am 21.8 20.1 19.0 84 1.8 E 26 35 14 19 1023.4 1023.2 15.0
20/12:30am 20.7 19.8 19.0 90 1.1 ESE 22 32 12 17 1023.5 1023.3 15.0
20/12:00am 22.5 21.4 17.8 75 2.9 E 20 26 11 14 1023.6 1023.4 13.8
 
Date/Time
EST
Temp
°C
App
Temp
°C
Dew
Point
°C
Rel
Hum
%
Delta-T
°C
Wind Press
QNH
hPa
Press
MSL
hPa
Rain since
9am
mm
Dir  Spd
km/h
Gust
km/h
Spd
kts
Gust
kts
19/11:30pm 22.7 21.5 18.5 77 2.6 E 22 33 12 18 1023.7 1023.5 13.8
19/11:00pm 22.6 21.5 18.6 78 2.5 E 22 30 12 16 1023.9 1023.7 13.8

Other formats

Comma delimited format used in spreadsheet applications
http://www.bom.gov.au/fwo/IDN60801/IDN60801.94598.axf

JavaScript Object Notation format (JSON) in row-major order
http://www.bom.gov.au/fwo/IDN60801/IDN60801.94598.json

Data quality

Most of these data are generated automatically and are frequently updated. Quality checks on data are not normally performed. It is possible for incorrect values to appear. Refer to information at About Latest Weather Observations and please check the disclaimer before using these data.